Time;durP1;ratioP1;P1;durP2;ratioP2;P2;SDS_P1;SDS_P2;PMS_P1;PMS_P2;Temp;Humidity;BMP_temperature;BMP_pressure;BME280_temperature;BME280_humidity;BME280_pressure;Samples;Min_cycle;Max_cycle;Signal;HPM_P1;HPM_P2
2022/09/17 00:01:16;;;;;;;4.30;1.92;;;10.50;90.60;;;;;;5026283;28;20463;-68
2022/09/17 00:03:48;;;;;;;3.38;2.00;;;10.50;90.50;;;;;;5027175;28;20438;-67
2022/09/17 00:06:15;;;;;;;5.72;2.00;;;10.50;90.60;;;;;;5026495;28;20434;-66
2022/09/17 00:08:42;;;;;;;6.38;2.00;;;10.50;90.70;;;;;;5027802;28;20919;-66
2022/09/17 00:11:10;;;;;;;5.33;2.07;;;10.50;90.70;;;;;;5026246;28;20465;-66
2022/09/17 00:13:37;;;;;;;4.63;2.00;;;10.60;90.60;;;;;;5025846;28;20446;-66
2022/09/17 00:16:04;;;;;;;5.38;2.30;;;10.60;90.60;;;;;;5027581;28;20427;-67
2022/09/17 00:18:31;;;;;;;3.65;2.13;;;10.60;90.70;;;;;;5026114;28;20431;-66
2022/09/17 00:20:59;;;;;;;4.35;2.22;;;10.60;90.60;;;;;;5025628;28;20431;-67
2022/09/17 00:23:25;;;;;;;5.95;2.38;;;10.60;90.50;;;;;;5026821;28;20446;-67
2022/09/17 00:25:52;;;;;;;6.03;2.30;;;10.60;90.60;;;;;;5026882;28;20431;-67
2022/09/17 00:28:19;;;;;;;4.65;2.20;;;10.60;90.70;;;;;;5017838;28;20455;-67
2022/09/17 00:30:46;;;;;;;6.82;2.30;;;10.60;90.70;;;;;;5023796;28;20430;-67
2022/09/17 00:33:15;;;;;;;4.90;2.13;;;10.60;90.80;;;;;;5025760;28;20512;-67
2022/09/17 00:35:42;;;;;;;3.90;2.28;;;10.60;90.90;;;;;;5026273;28;20433;-67
2022/09/17 00:38:10;;;;;;;4.30;2.30;;;10.60;90.80;;;;;;5018462;28;20431;-67
2022/09/17 00:40:37;;;;;;;5.97;2.50;;;10.60;90.80;;;;;;5025858;28;20439;-67
2022/09/17 00:43:07;;;;;;;5.45;2.10;;;10.60;90.90;;;;;;5023251;28;20435;-67
2022/09/17 00:45:33;;;;;;;5.07;2.88;;;10.60;91.00;;;;;;5017058;28;20474;-67
2022/09/17 00:48:02;;;;;;;5.10;2.15;;;10.60;91.00;;;;;;5022402;28;20443;-67
2022/09/17 00:50:31;;;;;;;5.80;2.58;;;10.60;91.10;;;;;;5025609;28;20439;-67
2022/09/17 00:53:04;;;;;;;4.13;2.13;;;10.60;91.10;;;;;;5024714;28;20921;-67
2022/09/17 00:55:36;;;;;;;5.90;2.25;;;10.60;91.10;;;;;;5026199;28;20469;-67
2022/09/17 00:58:06;;;;;;;5.63;2.40;;;10.70;91.10;;;;;;5022799;28;20442;-67
2022/09/17 01:00:33;;;;;;;5.22;2.10;;;10.70;91.00;;;;;;5024764;28;20440;-67
2022/09/17 01:03:00;;;;;;;5.35;2.10;;;10.70;90.90;;;;;;5024943;28;20439;-67
2022/09/17 01:05:33;;;;;;;5.18;2.30;;;10.70;91.00;;;;;;5025673;28;20442;-67
2022/09/17 01:08:11;;;;;;;6.13;2.70;;;10.60;91.00;;;;;;5025625;28;20431;-67
2022/09/17 01:11:15;;;;;;;4.95;2.40;;;10.70;91.20;;;;;;5019769;28;20439;-67
2022/09/17 01:13:56;;;;;;;5.60;2.70;;;10.70;91.20;;;;;;5022809;28;20442;-67
2022/09/17 01:16:33;;;;;;;4.88;2.00;;;10.60;91.20;;;;;;5016719;28;20432;-67
2022/09/17 01:19:14;;;;;;;4.20;2.20;;;10.70;91.30;;;;;;5025755;28;20439;-67
2022/09/17 01:21:57;;;;;;;6.55;2.80;;;10.70;91.20;;;;;;5019687;28;20440;-67
2022/09/17 01:25:00;;;;;;;7.30;2.90;;;10.60;91.30;;;;;;5022500;28;20443;-67
2022/09/17 01:28:09;;;;;;;7.10;2.60;;;10.70;91.20;;;;;;5025767;28;20426;-67
2022/09/17 01:31:08;;;;;;;5.60;2.95;;;10.70;91.10;;;;;;5020379;28;20443;-68
2022/09/17 01:33:42;;;;;;;5.85;2.47;;;10.70;91.20;;;;;;5006445;28;20453;-67
2022/09/17 01:36:27;;;;;;;5.22;2.63;;;10.80;91.10;;;;;;5024933;28;20439;-67
2022/09/17 01:39:02;;;;;;;6.55;2.60;;;10.80;91.00;;;;;;5025519;28;20443;-67
2022/09/17 01:41:40;;;;;;;5.13;2.30;;;10.70;91.10;;;;;;5018557;28;20431;-67
2022/09/17 01:44:15;;;;;;;4.55;2.45;;;10.70;91.00;;;;;;5023874;28;20876;-66
2022/09/17 01:46:45;;;;;;;5.90;2.40;;;10.70;91.10;;;;;;5014456;28;20434;-67
2022/09/17 01:49:16;;;;;;;4.23;2.60;;;10.70;91.20;;;;;;5024148;28;20433;-66
2022/09/17 01:51:47;;;;;;;4.83;2.60;;;10.70;91.30;;;;;;5025159;28;20434;-67
2022/09/17 01:54:20;;;;;;;7.13;2.67;;;10.70;91.10;;;;;;5023576;28;20442;-68
2022/09/17 01:56:51;;;;;;;4.30;2.00;;;10.70;91.30;;;;;;5020172;28;20904;-67
2022/09/17 01:59:22;;;;;;;5.70;2.70;;;10.70;91.40;;;;;;5025333;28;20431;-67
2022/09/17 02:01:54;;;;;;;5.47;2.50;;;10.70;91.20;;;;;;5024635;28;20461;-67
2022/09/17 02:04:28;;;;;;;6.32;2.47;;;10.60;91.20;;;;;;5026577;28;20427;-67
2022/09/17 02:07:00;;;;;;;4.93;2.50;;;10.60;91.30;;;;;;5028114;28;20435;-66
2022/09/17 02:09:31;;;;;;;7.88;2.40;;;10.50;91.50;;;;;;5028543;28;20434;-67
2022/09/17 02:12:02;;;;;;;5.50;2.40;;;10.60;91.60;;;;;;5033053;28;20434;-68
2022/09/17 02:14:36;;;;;;;5.40;2.63;;;10.60;91.60;;;;;;5026622;28;20942;-67
2022/09/17 02:17:09;;;;;;;7.10;2.72;;;10.60;91.60;;;;;;5026016;28;20422;-67
2022/09/17 02:19:39;;;;;;;6.93;2.30;;;10.70;91.60;;;;;;5022615;28;20442;-67
2022/09/17 02:22:14;;;;;;;4.65;2.30;;;10.60;91.60;;;;;;5026422;28;20437;-67
2022/09/17 02:24:45;;;;;;;6.50;3.00;;;10.60;91.60;;;;;;5026663;28;20438;-66
2022/09/17 02:27:19;;;;;;;5.57;2.20;;;10.60;91.60;;;;;;5028783;28;20492;-66
2022/09/17 02:29:45;;;;;;;6.90;2.75;;;10.70;91.70;;;;;;5026238;28;20442;-66
2022/09/17 02:32:13;;;;;;;5.45;2.50;;;10.70;91.70;;;;;;5025955;28;20431;-66
2022/09/17 02:34:41;;;;;;;5.20;2.53;;;10.60;91.60;;;;;;5028785;28;20450;-65
2022/09/17 02:37:09;;;;;;;8.13;2.67;;;10.60;91.60;;;;;;5028423;28;20431;-64
2022/09/17 02:39:35;;;;;;;5.68;2.63;;;10.60;91.60;;;;;;5027284;28;20436;-66
2022/09/17 02:42:11;;;;;;;8.75;3.10;;;10.60;91.60;;;;;;5027545;28;20435;-64
2022/09/17 02:44:49;;;;;;;8.75;3.00;;;10.60;91.70;;;;;;5026780;28;20805;-65
2022/09/17 02:47:30;;;;;;;8.23;2.70;;;10.60;91.70;;;;;;5026070;28;20434;-66
2022/09/17 02:50:13;;;;;;;7.57;2.95;;;10.70;91.50;;;;;;5023649;28;20438;-64
2022/09/17 02:52:51;;;;;;;7.25;3.00;;;10.70;91.50;;;;;;5021469;28;20431;-66
2022/09/17 02:55:23;;;;;;;5.07;2.63;;;10.70;91.60;;;;;;5026561;28;20439;-66
2022/09/17 02:57:57;;;;;;;5.38;2.45;;;10.70;91.90;;;;;;5027464;28;20434;-66
2022/09/17 03:00:24;;;;;;;7.70;2.80;;;10.70;92.10;;;;;;5027387;28;20434;-65
2022/09/17 03:02:57;;;;;;;7.60;3.30;;;10.70;92.20;;;;;;5028617;28;20438;-66
2022/09/17 03:05:26;;;;;;;9.40;3.15;;;10.70;92.20;;;;;;5026923;28;20446;-66
2022/09/17 03:07:55;;;;;;;5.70;2.90;;;10.60;92.40;;;;;;5024255;28;21038;-66
2022/09/17 03:10:22;;;;;;;8.02;3.28;;;10.60;92.30;;;;;;5027032;28;20427;-66
2022/09/17 03:12:50;;;;;;;6.50;3.10;;;10.60;92.40;;;;;;5026889;28;20442;-66
2022/09/17 03:15:16;;;;;;;9.07;3.50;;;10.60;93.00;;;;;;5026661;28;20473;-66
2022/09/17 03:17:43;;;;;;;7.37;2.70;;;10.60;92.70;;;;;;5028600;28;20431;-66
2022/09/17 03:20:10;;;;;;;8.70;3.00;;;10.70;92.60;;;;;;5027871;28;20446;-64
2022/09/17 03:22:38;;;;;;;6.88;3.20;;;10.70;92.30;;;;;;5026351;28;20435;-64
2022/09/17 03:25:06;;;;;;;7.70;2.85;;;10.70;92.20;;;;;;5028085;28;20427;-64
2022/09/17 03:27:32;;;;;;;6.70;3.00;;;10.70;92.20;;;;;;5027442;28;20430;-65
2022/09/17 03:29:59;;;;;;;6.22;2.83;;;10.60;92.20;;;;;;5027427;28;20482;-64
2022/09/17 03:32:26;;;;;;;6.13;2.50;;;10.70;92.30;;;;;;5024086;28;20441;-65
2022/09/17 03:34:53;;;;;;;6.93;2.40;;;10.70;92.10;;;;;;5027349;28;20445;-65
2022/09/17 03:37:20;;;;;;;7.13;2.87;;;10.70;92.00;;;;;;5027455;28;20427;-65
2022/09/17 03:39:48;;;;;;;7.63;2.97;;;10.70;91.80;;;;;;5023989;28;20987;-65
2022/09/17 03:42:15;;;;;;;4.80;2.30;;;10.80;91.80;;;;;;5024225;28;20439;-64
2022/09/17 03:44:42;;;;;;;6.43;2.80;;;10.70;91.60;;;;;;5021505;28;20431;-65
2022/09/17 03:47:11;;;;;;;4.85;2.40;;;10.80;91.50;;;;;;5026537;28;20435;-64
2022/09/17 03:49:37;;;;;;;5.15;2.22;;;10.80;91.40;;;;;;5026872;28;20500;-65
2022/09/17 03:52:04;;;;;;;6.05;2.92;;;10.80;91.40;;;;;;5026102;28;20435;-65
2022/09/17 03:54:31;;;;;;;7.90;2.65;;;10.80;91.30;;;;;;5026832;28;20431;-66
2022/09/17 03:56:59;;;;;;;7.50;2.65;;;10.80;91.40;;;;;;5027066;28;20798;-64
2022/09/17 03:59:26;;;;;;;7.40;2.90;;;10.80;91.30;;;;;;5026499;28;20450;-65
2022/09/17 04:01:52;;;;;;;6.38;2.30;;;10.80;91.40;;;;;;5025354;28;21056;-66
2022/09/17 04:04:19;;;;;;;7.68;2.70;;;10.80;91.30;;;;;;5012842;28;20911;-66
2022/09/17 04:06:46;;;;;;;6.70;2.88;;;10.80;91.30;;;;;;5028242;28;20453;-66
2022/09/17 04:09:13;;;;;;;7.45;2.60;;;10.90;91.20;;;;;;5028568;28;20422;-66
2022/09/17 04:11:39;;;;;;;7.85;2.63;;;10.80;91.20;;;;;;5023238;28;20811;-65
2022/09/17 04:14:07;;;;;;;8.25;3.05;;;10.80;91.30;;;;;;5026668;28;20419;-67
2022/09/17 04:16:34;;;;;;;7.72;2.80;;;10.90;91.70;;;;;;5015877;28;20913;-65
2022/09/17 04:19:01;;;;;;;6.25;2.47;;;10.90;91.90;;;;;;5028692;28;20423;-66
2022/09/17 04:21:28;;;;;;;6.15;2.78;;;10.90;92.00;;;;;;5027397;28;20442;-65
2022/09/17 04:23:55;;;;;;;7.72;2.70;;;10.80;92.20;;;;;;5027172;28;20423;-66
2022/09/17 04:26:21;;;;;;;7.88;3.08;;;10.70;92.30;;;;;;5023101;28;20427;-65
2022/09/17 04:28:48;;;;;;;5.55;2.50;;;10.70;92.60;;;;;;5027787;28;20450;-65
2022/09/17 04:31:16;;;;;;;4.97;2.95;;;10.70;92.60;;;;;;5026067;28;20442;-66
2022/09/17 04:33:43;;;;;;;5.75;2.67;;;10.60;92.90;;;;;;5016258;28;20440;-66
2022/09/17 04:36:10;;;;;;;7.70;2.38;;;10.60;92.90;;;;;;5024914;28;20429;-66
2022/09/17 04:38:36;;;;;;;7.05;2.67;;;10.60;92.70;;;;;;5027309;28;20419;-64
2022/09/17 04:41:06;;;;;;;9.45;2.80;;;10.60;92.40;;;;;;5027047;28;20443;-65
2022/09/17 04:43:32;;;;;;;5.90;2.55;;;10.60;92.60;;;;;;5027529;28;20438;-66
2022/09/17 04:45:59;;;;;;;7.07;2.80;;;10.60;92.70;;;;;;5028316;28;21019;-66
2022/09/17 04:48:27;;;;;;;8.00;3.25;;;10.60;92.50;;;;;;5027885;28;20438;-66
2022/09/17 04:50:54;;;;;;;6.03;2.58;;;10.60;92.50;;;;;;5028225;28;20427;-64
2022/09/17 04:53:20;;;;;;;8.45;3.13;;;10.60;92.50;;;;;;5027832;28;20449;-66
2022/09/17 04:55:47;;;;;;;7.35;2.55;;;10.60;92.50;;;;;;5025102;28;20434;-65
2022/09/17 04:58:14;;;;;;;6.47;2.60;;;10.60;92.40;;;;;;5026925;28;20418;-66
2022/09/17 05:00:41;;;;;;;8.80;2.60;;;10.50;92.50;;;;;;5027385;28;20419;-65
2022/09/17 05:03:08;;;;;;;8.05;2.58;;;10.60;92.40;;;;;;5023370;28;20439;-66
2022/09/17 05:05:37;;;;;;;7.40;2.30;;;10.60;92.30;;;;;;5019542;28;20480;-65
2022/09/17 05:08:03;;;;;;;5.32;2.53;;;10.60;92.30;;;;;;5022498;28;20457;-66
2022/09/17 05:10:30;;;;;;;7.45;2.72;;;10.60;92.40;;;;;;5020122;28;20445;-65
2022/09/17 05:12:57;;;;;;;6.75;2.42;;;10.60;92.20;;;;;;5018429;28;20439;-66
2022/09/17 05:15:25;;;;;;;6.18;2.40;;;10.60;92.20;;;;;;5017977;28;20933;-66
2022/09/17 05:17:52;;;;;;;8.18;2.40;;;10.50;92.20;;;;;;5025437;28;20431;-65
2022/09/17 05:20:19;;;;;;;6.57;2.50;;;10.50;92.20;;;;;;5026346;28;20437;-66
2022/09/17 05:22:50;;;;;;;9.18;2.53;;;10.60;92.20;;;;;;5017557;28;20432;-66
2022/09/17 05:25:18;;;;;;;5.70;2.40;;;10.50;92.20;;;;;;5025330;28;21329;-66
2022/09/17 05:27:46;;;;;;;4.95;2.40;;;10.60;92.10;;;;;;5023755;28;21209;-65
2022/09/17 05:30:13;;;;;;;5.95;2.33;;;10.60;92.10;;;;;;5026844;28;20430;-66
2022/09/17 05:32:40;;;;;;;9.20;2.20;;;10.60;92.10;;;;;;5045366;22;20840;-69
2022/09/17 05:35:08;;;;;;;8.13;2.50;;;10.60;92.10;;;;;;5020138;28;20436;-70
2022/09/17 05:37:36;;;;;;;9.63;2.90;;;10.60;92.10;;;;;;5027438;28;20453;-69
2022/09/17 05:40:05;;;;;;;7.55;2.50;;;10.60;91.70;;;;;;5030786;28;20438;-70
2022/09/17 05:42:32;;;;;;;8.45;2.42;;;10.60;91.70;;;;;;5030142;28;20488;-70
2022/09/17 05:44:59;;;;;;;5.35;2.30;;;10.60;91.70;;;;;;5031779;28;20419;-71
2022/09/17 05:47:26;;;;;;;5.07;2.07;;;10.60;92.10;;;;;;5029123;28;20497;-69
2022/09/17 05:49:52;;;;;;;6.53;2.17;;;10.60;91.80;;;;;;5031240;28;20431;-69
2022/09/17 05:52:19;;;;;;;5.40;2.13;;;10.60;91.70;;;;;;5030570;28;20907;-68
2022/09/17 05:54:47;;;;;;;5.85;2.10;;;10.60;91.70;;;;;;5032868;28;20542;-67
2022/09/17 05:57:15;;;;;;;5.28;2.00;;;10.60;91.90;;;;;;5027814;28;20430;-69
2022/09/17 05:59:42;;;;;;;7.03;2.00;;;10.60;91.80;;;;;;5029581;28;20437;-70
2022/09/17 06:02:13;;;;;;;5.68;2.00;;;10.60;91.80;;;;;;5024234;28;22014;-68
2022/09/17 06:04:39;;;;;;;6.00;2.33;;;10.70;91.90;;;;;;5024076;28;20439;-69
2022/09/17 06:07:07;;;;;;;6.30;2.00;;;10.70;91.80;;;;;;5028749;28;20430;-68
2022/09/17 06:09:35;;;;;;;5.50;1.90;;;10.80;91.80;;;;;;5030823;28;20430;-69
2022/09/17 06:12:02;;;;;;;5.55;2.00;;;10.90;91.60;;;;;;5032996;28;20438;-69
2022/09/17 06:14:30;;;;;;;6.78;1.83;;;10.90;91.40;;;;;;5031456;28;20427;-69
2022/09/17 06:16:57;;;;;;;6.32;1.73;;;10.90;91.20;;;;;;5029770;28;20434;-68
2022/09/17 06:19:24;;;;;;;5.90;1.80;;;11.00;91.10;;;;;;5028787;28;20439;-67
2022/09/17 06:21:51;;;;;;;7.95;2.30;;;11.10;90.90;;;;;;5029022;28;20444;-67
2022/09/17 06:24:17;;;;;;;6.90;2.38;;;11.20;90.50;;;;;;5027172;28;20813;-68
2022/09/17 06:26:44;;;;;;;6.45;1.88;;;11.20;90.40;;;;;;5028704;28;20520;-68
2022/09/17 06:29:13;;;;;;;7.10;2.80;;;11.30;90.10;;;;;;5025870;28;20838;-68
2022/09/17 06:31:43;;;;;;;4.43;1.75;;;11.40;90.00;;;;;;5024429;28;20489;-67
2022/09/17 06:34:10;;;;;;;4.85;2.30;;;11.50;89.70;;;;;;5025267;28;20461;-68
2022/09/17 06:36:37;;;;;;;5.65;1.88;;;11.60;89.10;;;;;;5033602;28;20877;-68
2022/09/17 06:39:04;;;;;;;5.17;1.90;;;11.70;88.60;;;;;;5030680;28;20570;-67
2022/09/17 06:41:30;;;;;;;5.60;1.80;;;11.80;87.60;;;;;;5029099;28;20446;-68
2022/09/17 06:43:57;;;;;;;5.22;2.03;;;11.90;87.50;;;;;;5029709;28;20790;-68
2022/09/17 06:46:24;;;;;;;4.47;1.85;;;11.90;86.60;;;;;;5022785;28;20443;-68
2022/09/17 06:48:52;;;;;;;3.80;1.80;;;12.00;86.80;;;;;;5027375;28;20434;-68
2022/09/17 06:51:19;;;;;;;6.20;2.40;;;12.00;86.20;;;;;;5027752;28;21159;-68
2022/09/17 06:53:46;;;;;;;5.38;2.20;;;12.10;85.80;;;;;;5020072;28;20554;-69
2022/09/17 06:56:13;;;;;;;3.42;2.00;;;12.10;85.90;;;;;;5028439;28;20466;-68
2022/09/17 06:58:40;;;;;;;6.65;1.70;;;12.10;85.60;;;;;;5030038;28;20422;-68
2022/09/17 07:01:07;;;;;;;6.20;1.90;;;12.10;85.70;;;;;;5025495;28;20435;-68
2022/09/17 07:03:35;;;;;;;5.22;2.25;;;12.10;85.10;;;;;;5029848;28;20782;-69
2022/09/17 07:06:03;;;;;;;5.85;2.40;;;12.10;84.50;;;;;;5038160;28;20432;-68
2022/09/17 07:08:33;;;;;;;7.45;1.95;;;12.00;84.60;;;;;;5034000;28;20801;-68
2022/09/17 07:11:00;;;;;;;4.60;2.20;;;12.00;84.40;;;;;;5027072;28;20521;-68
2022/09/17 07:13:27;;;;;;;6.38;1.90;;;12.00;83.70;;;;;;5028796;28;21076;-69
2022/09/17 07:15:54;;;;;;;5.63;2.00;;;11.90;83.80;;;;;;5029415;28;20437;-68
2022/09/17 07:18:22;;;;;;;4.57;1.70;;;11.90;83.80;;;;;;5029702;28;20439;-68
2022/09/17 07:20:53;;;;;;;6.10;1.50;;;11.90;84.10;;;;;;5028667;28;20465;-68
2022/09/17 07:23:22;;;;;;;3.50;1.58;;;12.00;83.30;;;;;;5030243;28;20437;-69
2022/09/17 07:25:52;;;;;;;3.78;1.70;;;12.00;83.40;;;;;;5027857;28;20431;-68
2022/09/17 07:28:19;;;;;;;5.50;2.00;;;12.00;83.50;;;;;;5022932;28;20464;-68
2022/09/17 07:30:45;;;;;;;4.80;1.70;;;12.10;83.20;;;;;;5019850;28;20435;-68
2022/09/17 07:33:12;;;;;;;5.60;1.93;;;12.20;83.10;;;;;;5027502;28;20800;-68
2022/09/17 07:35:39;;;;;;;4.50;1.70;;;12.20;83.50;;;;;;5028715;28;20430;-69
2022/09/17 07:38:05;;;;;;;6.30;2.13;;;12.20;82.80;;;;;;5030231;28;21066;-68
2022/09/17 07:40:34;;;;;;;4.25;1.60;;;12.20;83.30;;;;;;5027917;28;20431;-67
2022/09/17 07:43:00;;;;;;;8.43;2.10;;;12.20;83.40;;;;;;5028826;28;20427;-68
2022/09/17 07:45:27;;;;;;;6.70;1.80;;;12.20;83.20;;;;;;5027949;28;20430;-68
2022/09/17 07:47:54;;;;;;;5.93;2.15;;;12.10;83.20;;;;;;5027481;28;20439;-68
2022/09/17 07:50:20;;;;;;;3.92;1.80;;;12.20;83.80;;;;;;5028460;28;20904;-67
2022/09/17 07:52:47;;;;;;;5.80;1.73;;;12.20;83.50;;;;;;5028366;28;20426;-68
2022/09/17 07:55:15;;;;;;;5.88;2.10;;;12.20;83.00;;;;;;5028793;28;20427;-69
2022/09/17 07:57:43;;;;;;;6.65;2.00;;;12.20;83.10;;;;;;5030820;28;20932;-68
2022/09/17 08:00:11;;;;;;;7.38;2.08;;;12.30;82.80;;;;;;5025851;28;20443;-66
2022/09/17 08:02:38;;;;;;;6.40;2.20;;;12.50;81.80;;;;;;5017164;28;20428;-68
2022/09/17 08:05:06;;;;;;;5.70;1.70;;;12.80;81.70;;;;;;5020797;28;20441;-67
2022/09/17 08:07:33;;;;;;;5.93;1.88;;;13.10;79.90;;;;;;5027860;28;20469;-66
2022/09/17 08:10:00;;;;;;;6.25;2.20;;;13.40;78.60;;;;;;5026296;28;20436;-67
2022/09/17 08:12:27;;;;;;;6.05;2.20;;;13.70;76.00;;;;;;5027040;28;20435;-67
2022/09/17 08:14:55;;;;;;;6.63;1.80;;;14.00;76.60;;;;;;5026892;28;20445;-67
2022/09/17 08:17:22;;;;;;;4.60;2.05;;;14.40;74.10;;;;;;5030249;28;20928;-66
2022/09/17 08:19:49;;;;;;;4.25;1.90;;;14.80;72.80;;;;;;5035389;28;20418;-66
2022/09/17 08:22:15;;;;;;;6.05;1.95;;;15.10;68.50;;;;;;5031746;28;20793;-66
2022/09/17 08:24:42;;;;;;;4.80;1.90;;;15.30;68.00;;;;;;5037737;28;20431;-67
2022/09/17 08:27:09;;;;;;;6.13;1.70;;;15.50;66.20;;;;;;5033217;28;20833;-66
2022/09/17 08:29:35;;;;;;;4.70;1.73;;;15.60;65.20;;;;;;5032098;28;20442;-67
2022/09/17 08:32:04;;;;;;;4.72;1.70;;;15.90;64.80;;;;;;5029341;28;20434;-68
2022/09/17 08:34:30;;;;;;;8.25;1.80;;;16.00;65.20;;;;;;5034396;28;20427;-67
2022/09/17 08:36:57;;;;;;;4.53;1.50;;;15.90;63.60;;;;;;5028863;28;20427;-67
2022/09/17 08:39:24;;;;;;;4.53;1.60;;;15.60;63.60;;;;;;5026194;28;20441;-68
2022/09/17 08:41:57;;;;;;;4.03;1.73;;;15.20;64.70;;;;;;5027286;28;20438;-67
2022/09/17 08:44:27;;;;;;;5.55;2.05;;;14.90;66.20;;;;;;5028068;28;21090;-67
2022/09/17 08:47:00;;;;;;;5.57;1.80;;;14.90;65.90;;;;;;5027275;28;20462;-67
2022/09/17 08:49:34;;;;;;;6.78;1.60;;;15.10;65.60;;;;;;5026990;28;20431;-67
2022/09/17 08:52:14;;;;;;;5.10;1.80;;;15.40;65.20;;;;;;5025902;28;20443;-67
2022/09/17 08:54:49;;;;;;;4.27;1.20;;;15.60;64.90;;;;;;5031346;28;20430;-66
2022/09/17 08:57:24;;;;;;;3.65;1.83;;;15.90;62.20;;;;;;5028060;28;20442;-67
2022/09/17 08:59:58;;;;;;;4.43;1.38;;;15.90;63.00;;;;;;5027525;28;20419;-68
2022/09/17 09:02:41;;;;;;;4.75;1.50;;;16.00;61.70;;;;;;5026888;28;20439;-68
2022/09/17 09:05:14;;;;;;;4.40;1.73;;;15.90;60.90;;;;;;5026894;28;20438;-67
2022/09/17 09:07:46;;;;;;;4.95;1.60;;;15.80;62.20;;;;;;5016052;28;20844;-67
2022/09/17 09:10:18;;;;;;;4.40;1.70;;;16.00;62.80;;;;;;5027141;28;20947;-67
2022/09/17 09:12:46;;;;;;;6.00;1.70;;;16.30;62.30;;;;;;5025968;28;20415;-67
2022/09/17 09:15:31;;;;;;;6.28;1.70;;;16.10;61.80;;;;;;5027683;28;20502;-68
2022/09/17 09:18:02;;;;;;;5.45;2.03;;;16.10;62.50;;;;;;5041830;28;20421;-68
2022/09/17 09:20:39;;;;;;;6.72;1.88;;;16.30;62.50;;;;;;5028417;28;20450;-67
2022/09/17 09:23:18;;;;;;;4.43;1.45;;;16.50;60.90;;;;;;5027337;28;20480;-68
2022/09/17 09:25:55;;;;;;;3.55;1.50;;;16.60;60.00;;;;;;5023680;28;20435;-68
2022/09/17 09:28:35;;;;;;;4.35;1.50;;;16.50;60.30;;;;;;5027429;28;20426;-68
2022/09/17 09:31:11;;;;;;;5.10;1.60;;;16.20;59.80;;;;;;5028009;28;20426;-68
2022/09/17 09:33:41;;;;;;;3.15;1.20;;;15.80;59.90;;;;;;5026855;28;20442;-66
2022/09/17 09:36:14;;;;;;;4.65;1.40;;;15.70;61.40;;;;;;5027129;28;20438;-69
2022/09/17 09:38:48;;;;;;;4.40;1.70;;;15.60;61.60;;;;;;5019101;28;21169;-68
2022/09/17 09:41:22;;;;;;;2.78;1.20;;;15.50;61.50;;;;;;5026199;28;20446;-68
2022/09/17 09:43:56;;;;;;;4.40;1.38;;;15.40;61.50;;;;;;5023672;28;20456;-67
2022/09/17 09:46:34;;;;;;;3.90;1.33;;;15.10;61.60;;;;;;5029501;28;20428;-67
2022/09/17 09:49:12;;;;;;;3.10;1.20;;;15.10;61.20;;;;;;5026988;28;20435;-68
2022/09/17 09:51:49;;;;;;;3.40;1.27;;;15.50;62.10;;;;;;5027312;28;20494;-68
2022/09/17 09:54:35;;;;;;;3.83;1.48;;;16.10;59.30;;;;;;5026657;28;20423;-68
2022/09/17 09:57:06;;;;;;;3.85;1.50;;;16.50;57.40;;;;;;5028036;28;20932;-68
2022/09/17 09:59:34;;;;;;;4.00;1.50;;;16.80;57.40;;;;;;5026773;28;20423;-67
2022/09/17 10:02:02;;;;;;;6.60;1.70;;;17.10;56.90;;;;;;5026254;28;20422;-68
2022/09/17 10:04:31;;;;;;;3.95;1.50;;;17.40;55.00;;;;;;5029480;28;20481;-68
2022/09/17 10:07:04;;;;;;;4.15;1.08;;;17.40;54.90;;;;;;5027814;28;20913;-68
2022/09/17 10:09:33;;;;;;;2.70;1.35;;;17.20;54.90;;;;;;5023725;28;20431;-68
2022/09/17 10:12:16;;;;;;;4.72;1.42;;;17.10;56.30;;;;;;5027830;28;20434;-66
2022/09/17 10:14:44;;;;;;;4.50;1.30;;;17.10;55.00;;;;;;5023905;28;20431;-68
2022/09/17 10:17:16;;;;;;;4.55;1.50;;;17.10;54.30;;;;;;5026655;28;20478;-67
2022/09/17 10:19:44;;;;;;;4.00;1.42;;;16.90;55.60;;;;;;5024186;28;20426;-67
2022/09/17 10:22:26;;;;;;;4.93;1.40;;;16.80;56.00;;;;;;5025453;28;20785;-67
2022/09/17 10:24:55;;;;;;;4.45;1.20;;;16.70;55.30;;;;;;5027406;28;20434;-67
2022/09/17 10:27:24;;;;;;;4.32;1.35;;;16.80;55.50;;;;;;5031160;28;20426;-68
2022/09/17 10:30:01;;;;;;;4.25;1.30;;;17.10;53.90;;;;;;5028992;28;20439;-68
2022/09/17 10:32:28;;;;;;;3.10;1.10;;;17.20;53.50;;;;;;5040792;28;20433;-67
2022/09/17 10:34:59;;;;;;;2.20;1.00;;;17.50;52.90;;;;;;5036723;28;20415;-68
2022/09/17 10:37:41;;;;;;;2.63;1.13;;;17.70;51.40;;;;;;5029921;28;20833;-67
2022/09/17 10:40:27;;;;;;;4.05;1.10;;;18.00;50.50;;;;;;5036182;28;20923;-68
2022/09/17 10:43:24;;;;;;;3.60;1.40;;;18.10;48.40;;;;;;5028605;28;20917;-68
2022/09/17 10:45:59;;;;;;;3.80;0.90;;;18.30;49.00;;;;;;5022958;28;20442;-68
2022/09/17 10:48:30;;;;;;;3.42;1.20;;;18.50;46.70;;;;;;5030493;28;20456;-66
2022/09/17 10:50:58;;;;;;;2.55;1.00;;;18.30;47.40;;;;;;5031624;28;20419;-68
2022/09/17 10:53:27;;;;;;;2.70;1.10;;;18.10;47.90;;;;;;5027146;28;20435;-69
2022/09/17 10:56:02;;;;;;;3.38;1.20;;;17.90;49.30;;;;;;5026520;28;20450;-68
2022/09/17 10:58:43;;;;;;;3.40;1.15;;;17.80;50.80;;;;;;5029336;28;20923;-67
2022/09/17 11:01:22;;;;;;;3.60;1.00;;;17.60;52.10;;;;;;5028169;28;20453;-67
2022/09/17 11:04:15;;;;;;;4.78;1.20;;;17.70;52.60;;;;;;5030885;28;20419;-67
2022/09/17 11:07:06;;;;;;;2.67;1.23;;;17.80;50.70;;;;;;5026712;28;20439;-67
2022/09/17 11:09:45;;;;;;;4.68;1.40;;;17.70;51.70;;;;;;5029238;28;20914;-67
2022/09/17 11:12:31;;;;;;;4.18;1.40;;;17.20;54.50;;;;;;5030672;28;20422;-68
2022/09/17 11:15:06;;;;;;;4.80;1.42;;;16.90;56.30;;;;;;5028785;28;20828;-68
2022/09/17 11:17:49;;;;;;;4.35;1.90;;;17.10;56.50;;;;;;5029098;28;20427;-67
2022/09/17 11:20:29;;;;;;;2.47;1.00;;;17.50;54.40;;;;;;5031012;28;20421;-68
2022/09/17 11:23:11;;;;;;;4.25;1.10;;;17.50;51.90;;;;;;5030368;28;20438;-66
2022/09/17 11:25:46;;;;;;;2.80;0.90;;;17.60;51.80;;;;;;5031440;28;20419;-67
2022/09/17 11:28:33;;;;;;;3.05;0.90;;;17.60;52.20;;;;;;5030709;28;20438;-66
2022/09/17 11:31:14;;;;;;;2.90;1.00;;;17.50;52.60;;;;;;5024399;28;20435;-68
2022/09/17 11:33:53;;;;;;;3.05;1.20;;;17.40;51.20;;;;;;5047720;22;20443;-67
2022/09/17 11:36:25;;;;;;;2.97;1.10;;;17.40;51.40;;;;;;5024900;28;20449;-66
2022/09/17 11:38:56;;;;;;;3.95;1.00;;;17.40;51.00;;;;;;5022957;28;20576;-66
2022/09/17 11:41:30;;;;;;;3.55;1.40;;;17.60;51.90;;;;;;5023760;28;20431;-66
2022/09/17 11:44:06;;;;;;;3.63;1.20;;;17.80;51.10;;;;;;5026280;28;20430;-66
2022/09/17 11:46:39;;;;;;;2.30;0.85;;;18.20;51.10;;;;;;5024352;28;20782;-67
2022/09/17 11:49:12;;;;;;;4.32;0.80;;;18.10;50.50;;;;;;5025272;28;20427;-67
2022/09/17 11:51:43;;;;;;;2.70;0.90;;;17.70;51.80;;;;;;5022170;28;20436;-65
2022/09/17 11:54:21;;;;;;;2.40;0.80;;;16.90;52.60;;;;;;5025191;28;20442;-67
2022/09/17 11:56:52;;;;;;;1.73;0.60;;;16.00;56.60;;;;;;5025992;28;20423;-67
2022/09/17 11:59:26;;;;;;;2.63;0.70;;;15.30;62.30;;;;;;5025640;28;20427;-67
2022/09/17 12:01:57;;;;;;;2.17;0.80;;;14.70;64.80;;;;;;5025916;28;20769;-66
2022/09/17 12:04:40;;;;;;;3.15;0.80;;;14.40;66.80;;;;;;5025095;28;20434;-64
2022/09/17 12:07:19;;;;;;;2.80;0.90;;;14.50;71.70;;;;;;5020324;28;20431;-66
2022/09/17 12:09:51;;;;;;;2.80;1.00;;;14.80;72.60;;;;;;5024334;28;20438;-65
2022/09/17 12:12:22;;;;;;;3.63;1.10;;;15.10;70.00;;;;;;5020901;28;20456;-66
2022/09/17 12:14:53;;;;;;;3.03;1.10;;;15.30;73.10;;;;;;5024269;28;20434;-65
2022/09/17 12:17:24;;;;;;;2.85;1.20;;;15.50;69.10;;;;;;5021048;28;20904;-68
2022/09/17 12:19:57;;;;;;;1.70;0.90;;;15.80;64.60;;;;;;5025096;28;20418;-67
2022/09/17 12:22:27;;;;;;;2.40;0.90;;;16.10;64.30;;;;;;5020906;28;20435;-67
2022/09/17 12:24:54;;;;;;;2.85;1.10;;;16.90;60.50;;;;;;5023509;28;21007;-67
2022/09/17 12:27:33;;;;;;;2.00;0.98;;;17.40;59.30;;;;;;5022641;28;20438;-68
2022/09/17 12:30:08;;;;;;;3.20;1.00;;;18.00;57.60;;;;;;5025086;28;20457;-70
2022/09/17 12:32:58;;;;;;;2.30;0.90;;;18.50;55.00;;;;;;5021613;28;20434;-68
2022/09/17 12:35:42;;;;;;;1.73;1.20;;;18.50;54.60;;;;;;5021646;28;20915;-68
2022/09/17 12:38:26;;;;;;;2.55;0.90;;;18.30;53.40;;;;;;5022451;28;20443;-67
2022/09/17 12:41:00;;;;;;;3.03;1.10;;;17.80;55.80;;;;;;5023204;28;20423;-68
2022/09/17 12:43:51;;;;;;;3.53;1.30;;;17.20;55.20;;;;;;5020280;28;20426;-68
2022/09/17 12:46:37;;;;;;;2.50;1.17;;;16.80;57.20;;;;;;5022848;28;20415;-68
2022/09/17 12:49:19;;;;;;;3.40;1.10;;;16.60;57.60;;;;;;5023959;28;20470;-68
2022/09/17 12:51:54;;;;;;;3.03;1.38;;;16.30;58.60;;;;;;5014182;28;21285;-67
2022/09/17 12:54:44;;;;;;;4.10;1.30;;;16.10;59.50;;;;;;5021938;28;20485;-66
2022/09/17 12:57:21;;;;;;;2.80;1.10;;;15.90;60.40;;;;;;5022312;28;20785;-67
2022/09/17 12:59:54;;;;;;;2.30;1.00;;;15.80;61.90;;;;;;5017944;28;20949;-68
2022/09/17 13:02:27;;;;;;;1.65;0.80;;;15.70;63.50;;;;;;5020223;28;20465;-67
2022/09/17 13:05:26;;;;;;;5.57;1.98;;;15.30;68.90;;;;;;5024096;28;20431;-68
2022/09/17 13:08:14;;;;;;;6.68;2.70;;;15.00;77.70;;;;;;5015447;28;20454;-70
2022/09/17 13:11:07;;;;;;;5.30;2.40;;;14.70;85.10;;;;;;5021324;28;20431;-69